createdAt,value
2017-09-12T00:01:43.731Z,1.40
2017-09-12T00:04:12.067Z,1.00
2017-09-12T00:06:39.647Z,1.10
2017-09-12T00:09:07.237Z,1.10
2017-09-12T00:11:34.793Z,2.70
2017-09-12T00:14:03.265Z,1.10
2017-09-12T00:16:31.649Z,1.30
2017-09-12T00:18:59.977Z,1.20
2017-09-12T00:21:27.554Z,1.63
2017-09-12T00:23:55.131Z,1.17
2017-09-12T00:26:22.684Z,1.13
2017-09-12T00:28:50.245Z,1.10
2017-09-12T00:31:17.847Z,1.00
2017-09-12T00:33:45.454Z,1.00
2017-09-12T00:36:13.022Z,1.37
2017-09-12T00:38:40.614Z,1.20
2017-09-12T00:41:09.019Z,1.33
2017-09-12T00:43:36.624Z,1.30
2017-09-12T00:46:04.259Z,1.53
2017-09-12T00:48:31.833Z,0.97
2017-09-12T00:50:59.399Z,1.23
2017-09-12T00:53:27.034Z,2.80
2017-09-12T00:55:54.627Z,1.60
2017-09-12T00:58:22.240Z,1.17
2017-09-12T01:00:49.871Z,1.37
2017-09-12T01:03:18.237Z,0.83
2017-09-12T01:05:46.551Z,1.33
2017-09-12T01:08:14.149Z,2.03
2017-09-12T01:10:41.744Z,1.33
2017-09-12T01:13:10.114Z,3.10
2017-09-12T01:15:37.711Z,1.57
2017-09-12T01:18:05.288Z,1.40
2017-09-12T01:20:32.925Z,1.83
2017-09-12T01:23:00.589Z,1.20
2017-09-12T01:25:28.188Z,1.47
2017-09-12T01:27:55.753Z,2.30
2017-09-12T01:30:23.432Z,1.20
2017-09-12T01:32:51.160Z,1.20
2017-09-12T01:35:18.728Z,1.40
2017-09-12T01:37:46.364Z,1.30
2017-09-12T01:40:13.921Z,1.30
2017-09-12T01:42:41.529Z,1.57
2017-09-12T01:45:09.088Z,1.57
2017-09-12T01:47:36.681Z,1.57
2017-09-12T01:50:05.055Z,1.53
2017-09-12T01:52:33.445Z,1.30
2017-09-12T01:55:01.004Z,2.00
2017-09-12T01:57:28.573Z,1.40
2017-09-12T01:59:56.173Z,2.47
2017-09-12T02:02:23.730Z,1.63
2017-09-12T02:04:51.322Z,1.30
2017-09-12T02:07:19.689Z,1.50
2017-09-12T02:09:47.271Z,1.60
2017-09-12T02:12:15.637Z,1.80
2017-09-12T02:14:43.208Z,2.00
2017-09-12T02:17:11.548Z,1.20
2017-09-12T02:19:39.141Z,1.43
2017-09-12T02:22:07.466Z,1.90
2017-09-12T02:24:35.045Z,2.07
2017-09-12T02:27:02.685Z,1.93
2017-09-12T02:29:30.278Z,1.53
2017-09-12T02:31:57.861Z,1.43
2017-09-12T02:34:26.208Z,1.47
2017-09-12T02:36:53.780Z,1.83
2017-09-12T02:39:21.342Z,1.40
2017-09-12T02:41:48.948Z,1.53
2017-09-12T02:44:16.503Z,1.30
2017-09-12T02:46:44.075Z,1.60
2017-09-12T02:49:11.676Z,1.03
2017-09-12T02:51:39.234Z,1.20
2017-09-12T02:54:06.820Z,1.40
2017-09-12T02:56:35.203Z,1.13
2017-09-12T02:59:03.588Z,1.13
2017-09-12T03:01:31.150Z,0.80
2017-09-12T03:03:59.497Z,1.60
2017-09-12T03:06:27.059Z,1.37
2017-09-12T03:08:54.644Z,1.50
2017-09-12T03:11:22.958Z,1.40
2017-09-12T03:13:50.532Z,1.60
2017-09-12T03:16:18.099Z,1.23
2017-09-12T03:18:45.666Z,1.37
2017-09-12T03:21:13.240Z,1.63
2017-09-12T03:23:40.793Z,1.40
2017-09-12T03:26:08.400Z,1.50
2017-09-12T03:28:35.981Z,1.70
2017-09-12T03:31:03.686Z,1.97
2017-09-12T03:33:32.015Z,1.70
2017-09-12T03:35:59.606Z,1.20
2017-09-12T03:38:27.176Z,1.37
2017-09-12T03:40:54.739Z,2.03
2017-09-12T03:43:22.338Z,1.33
2017-09-12T03:45:49.955Z,1.47
2017-09-12T03:48:17.553Z,1.20
2017-09-12T03:50:45.137Z,1.13
2017-09-12T03:53:12.859Z,0.90
2017-09-12T03:55:41.237Z,1.60
2017-09-12T03:58:09.585Z,1.33
2017-09-12T04:00:37.157Z,1.60
2017-09-12T04:03:04.746Z,1.43
2017-09-12T04:05:32.351Z,2.53
2017-09-12T04:07:59.937Z,1.30
2017-09-12T04:10:27.549Z,1.07
2017-09-12T04:12:55.177Z,1.43
2017-09-12T04:15:23.577Z,1.63
2017-09-12T04:17:51.177Z,1.30
2017-09-12T04:20:18.782Z,1.17
2017-09-12T04:22:47.135Z,1.30
2017-09-12T04:25:14.716Z,1.07
2017-09-12T04:27:43.118Z,1.23
2017-09-12T04:30:10.714Z,1.37
2017-09-12T04:32:38.314Z,1.17
2017-09-12T04:35:06.647Z,1.10
2017-09-12T04:37:34.253Z,1.30
2017-09-12T04:40:02.620Z,1.40
2017-09-12T04:42:30.210Z,1.20
2017-09-12T04:44:57.777Z,1.17
2017-09-12T04:47:25.412Z,1.43
2017-09-12T04:49:53.758Z,1.83
2017-09-12T04:52:21.334Z,1.43
2017-09-12T04:54:48.912Z,1.27
2017-09-12T04:57:17.435Z,1.40
2017-09-12T04:59:45.065Z,1.67
2017-09-12T05:02:12.677Z,1.30
2017-09-12T05:04:40.882Z,1.27
2017-09-12T05:07:09.330Z,1.50
2017-09-12T05:09:36.914Z,1.40
2017-09-12T05:12:04.494Z,1.13
2017-09-12T05:14:32.077Z,1.50
2017-09-12T05:16:59.645Z,1.17
2017-09-12T05:19:27.211Z,1.57
2017-09-12T05:21:54.804Z,1.87
2017-09-12T05:24:22.416Z,3.57
2017-09-12T05:26:50.028Z,4.77
2017-09-12T05:29:17.588Z,4.10
2017-09-12T05:31:45.177Z,4.50
2017-09-12T05:34:12.733Z,3.53
2017-09-12T05:36:41.094Z,3.40
2017-09-12T05:39:09.430Z,3.53
2017-09-12T05:41:37.013Z,2.63
2017-09-12T05:44:04.600Z,2.27
2017-09-12T05:46:32.925Z,1.40
2017-09-12T05:49:00.505Z,1.57
2017-09-12T05:51:28.070Z,1.63
2017-09-12T05:53:55.663Z,1.90
2017-09-12T05:56:23.273Z,3.77
2017-09-12T05:58:50.897Z,2.57
2017-09-12T06:01:18.440Z,1.77
2017-09-12T06:03:46.814Z,2.10
2017-09-12T06:06:15.536Z,2.53
2017-09-12T06:08:43.125Z,1.73
2017-09-12T06:11:10.755Z,1.50
2017-09-12T06:13:38.334Z,1.20
2017-09-12T06:16:05.925Z,2.33
2017-09-12T06:18:33.467Z,1.53
2017-09-12T06:21:01.071Z,1.93
2017-09-12T06:23:29.442Z,1.50
2017-09-12T06:25:57.810Z,1.20
2017-09-12T06:28:25.355Z,1.40
2017-09-12T06:30:52.977Z,1.60
2017-09-12T06:33:20.562Z,1.33
2017-09-12T06:35:48.114Z,1.07
2017-09-12T06:38:15.746Z,1.20
2017-09-12T06:40:43.319Z,1.30
2017-09-12T06:43:10.886Z,2.50
2017-09-12T06:45:38.452Z,1.77
2017-09-12T06:48:06.045Z,1.73
2017-09-12T06:50:33.591Z,1.70
2017-09-12T06:53:01.176Z,1.50
2017-09-12T06:55:29.522Z,1.73
2017-09-12T06:57:57.082Z,1.80
2017-09-12T07:00:24.722Z,1.90
2017-09-12T07:02:52.277Z,1.97
2017-09-12T07:05:19.863Z,1.70
2017-09-12T07:07:47.437Z,1.27
2017-09-12T07:10:15.060Z,2.03
2017-09-12T07:12:42.626Z,1.47
2017-09-12T07:15:10.223Z,1.53
2017-09-12T07:17:37.786Z,1.40
2017-09-12T07:20:05.381Z,1.63
2017-09-12T07:22:32.994Z,1.57
2017-09-12T07:25:00.569Z,1.47
2017-09-12T07:27:28.139Z,1.53
2017-09-12T07:29:56.501Z,1.70
2017-09-12T07:32:24.096Z,1.53
2017-09-12T07:34:51.642Z,1.87
2017-09-12T07:37:20.009Z,1.43
2017-09-12T07:39:48.326Z,1.53
2017-09-12T07:42:16.761Z,2.03
2017-09-12T07:44:44.442Z,1.83
2017-09-12T07:47:11.996Z,1.83
2017-09-12T07:49:40.350Z,1.30
2017-09-12T07:52:07.945Z,1.67
2017-09-12T07:54:35.526Z,1.37
2017-09-12T07:57:03.083Z,1.20
2017-09-12T07:59:30.701Z,1.67
2017-09-12T08:01:58.275Z,1.47
2017-09-12T08:04:26.635Z,1.53
2017-09-12T08:06:54.190Z,1.37
2017-09-12T08:09:21.778Z,2.07
2017-09-12T08:11:50.121Z,1.40
2017-09-12T08:14:17.687Z,1.70
2017-09-12T08:16:45.271Z,1.77
2017-09-12T08:19:13.609Z,1.60
2017-09-12T08:21:41.175Z,1.33
2017-09-12T08:24:08.735Z,1.50
2017-09-12T08:26:36.322Z,1.13
2017-09-12T08:29:04.645Z,1.33
2017-09-12T08:31:32.208Z,1.20
2017-09-12T08:33:59.772Z,1.37
2017-09-12T08:36:28.350Z,1.20
2017-09-12T08:38:55.958Z,1.27
2017-09-12T08:41:24.280Z,1.03
2017-09-12T08:43:51.861Z,1.20
2017-09-12T08:46:19.410Z,1.30
2017-09-12T08:48:46.993Z,0.90
2017-09-12T08:51:14.561Z,1.27
2017-09-12T08:53:42.177Z,1.10
2017-09-12T08:56:09.729Z,1.00
2017-09-12T08:58:37.308Z,1.00
2017-09-12T09:01:04.876Z,1.10
2017-09-12T09:03:32.421Z,0.87
2017-09-12T09:06:00.017Z,1.63
2017-09-12T09:08:27.574Z,1.07
2017-09-12T09:10:55.169Z,0.80
2017-09-12T09:13:23.522Z,1.30
2017-09-12T09:15:51.113Z,0.90
2017-09-12T09:18:18.672Z,1.23
2017-09-12T09:20:46.250Z,1.23
2017-09-12T09:23:13.829Z,1.10
2017-09-12T09:25:41.406Z,1.20
2017-09-12T09:28:09.007Z,1.60
2017-09-12T09:30:37.329Z,1.53
2017-09-12T09:33:04.917Z,1.33
2017-09-12T09:35:32.475Z,1.23
2017-09-12T09:38:00.054Z,2.47
2017-09-12T09:40:28.380Z,1.90
2017-09-12T09:42:55.984Z,1.10
2017-09-12T09:45:23.524Z,1.50
2017-09-12T09:47:51.102Z,1.10
2017-09-12T09:50:18.671Z,1.30
2017-09-12T09:52:46.991Z,1.17
2017-09-12T09:55:14.559Z,1.80
2017-09-12T09:57:42.117Z,1.20
2017-09-12T10:00:09.701Z,1.00
2017-09-12T10:02:37.293Z,0.97
2017-09-12T10:05:05.649Z,1.00
2017-09-12T10:07:33.212Z,1.40
2017-09-12T10:10:01.561Z,1.10
2017-09-12T10:12:29.198Z,1.43
2017-09-12T10:14:56.751Z,1.30
2017-09-12T10:17:24.330Z,1.27
2017-09-12T10:19:51.897Z,1.10
2017-09-12T10:22:19.513Z,1.70
2017-09-12T10:24:47.838Z,1.40
2017-09-12T10:27:15.426Z,1.23
2017-09-12T10:29:43.906Z,1.30
2017-09-12T10:32:11.531Z,1.00
2017-09-12T10:34:39.093Z,1.03
2017-09-12T10:37:06.679Z,1.23
2017-09-12T10:39:34.292Z,1.03
2017-09-12T10:42:01.859Z,1.13
2017-09-12T10:44:29.446Z,0.80
2017-09-12T10:46:57.025Z,1.30
2017-09-12T10:49:24.609Z,1.37
2017-09-12T10:51:52.927Z,1.00
2017-09-12T10:54:20.557Z,0.83
2017-09-12T10:56:48.108Z,0.87
2017-09-12T10:59:16.429Z,0.90
2017-09-12T11:01:44.004Z,1.07
2017-09-12T11:04:11.565Z,1.20
2017-09-12T11:06:39.155Z,1.07
2017-09-12T11:09:07.495Z,1.07
2017-09-12T11:11:35.092Z,0.90
2017-09-12T11:14:03.458Z,1.00
2017-09-12T11:16:31.027Z,1.27
2017-09-12T11:18:59.403Z,0.80
2017-09-12T11:21:27.051Z,0.90
2017-09-12T11:23:54.621Z,1.40
2017-09-12T11:26:22.179Z,1.00
2017-09-12T11:28:49.799Z,1.00
2017-09-12T11:31:17.357Z,1.20
2017-09-12T11:33:44.945Z,0.93
2017-09-12T11:36:12.506Z,1.30
2017-09-12T11:38:40.098Z,1.10
2017-09-12T11:41:08.462Z,1.10
2017-09-12T11:43:36.826Z,1.00
2017-09-12T11:46:04.426Z,1.20
2017-09-12T11:48:32.009Z,1.00
2017-09-12T11:50:59.589Z,0.93
2017-09-12T11:53:28.102Z,1.00
2017-09-12T11:55:55.762Z,2.17
2017-09-12T11:58:23.332Z,0.90
2017-09-12T12:00:51.669Z,1.40
2017-09-12T12:03:19.209Z,0.80
2017-09-12T12:05:46.814Z,0.93
2017-09-12T12:08:14.412Z,0.90
2017-09-12T12:10:42.121Z,1.20
2017-09-12T12:13:09.677Z,1.10
2017-09-12T12:15:37.267Z,0.67
2017-09-12T12:18:05.627Z,1.00
2017-09-12T12:20:33.194Z,1.00
2017-09-12T12:23:00.791Z,0.90
2017-09-12T12:25:28.345Z,0.90
2017-09-12T12:27:56.685Z,0.77
2017-09-12T12:30:24.259Z,0.90
2017-09-12T12:32:51.851Z,0.60
2017-09-12T12:35:19.398Z,0.63
2017-09-12T12:37:47.725Z,0.87
2017-09-12T12:40:15.340Z,1.10
2017-09-12T12:42:43.654Z,0.80
2017-09-12T12:45:11.232Z,0.70
2017-09-12T12:47:38.821Z,0.60
2017-09-12T12:50:07.225Z,0.70
2017-09-12T12:52:34.769Z,1.33
2017-09-12T12:55:03.111Z,0.70
2017-09-12T12:57:30.704Z,0.80
2017-09-12T12:59:59.063Z,0.80
2017-09-12T13:02:26.656Z,0.90
2017-09-12T13:04:54.244Z,1.00
2017-09-12T13:07:21.863Z,0.87
2017-09-12T13:09:50.229Z,0.70
2017-09-12T13:12:17.844Z,0.90
2017-09-12T13:14:45.411Z,0.80
2017-09-12T13:17:13.074Z,0.57
2017-09-12T13:19:40.622Z,0.60
2017-09-12T13:22:08.197Z,0.80
2017-09-12T13:24:35.788Z,0.60
2017-09-12T13:27:03.327Z,0.90
2017-09-12T13:29:30.924Z,0.50
2017-09-12T13:31:59.273Z,0.70
2017-09-12T13:34:26.844Z,0.77
2017-09-12T13:36:54.412Z,0.60
2017-09-12T13:39:22.767Z,0.80
2017-09-12T13:41:50.307Z,0.80
2017-09-12T13:44:17.889Z,0.60
2017-09-12T13:46:45.441Z,0.60
2017-09-12T13:49:13.071Z,0.50
2017-09-12T13:51:40.727Z,0.40
2017-09-12T13:54:08.310Z,0.50
2017-09-12T13:56:35.885Z,0.60
2017-09-12T13:59:03.432Z,0.60
2017-09-12T14:01:31.010Z,0.40
2017-09-12T14:04:00.504Z,0.50
2017-09-12T14:06:28.086Z,0.40
2017-09-12T14:08:55.655Z,0.50
2017-09-12T14:11:24.029Z,0.50
2017-09-12T14:13:52.391Z,0.50
2017-09-12T14:16:19.969Z,0.50
2017-09-12T14:18:47.601Z,0.50
2017-09-12T14:21:15.153Z,0.50
2017-09-12T14:23:42.715Z,0.50
2017-09-12T14:26:10.295Z,0.70
2017-09-12T14:28:37.883Z,0.50
2017-09-12T14:31:06.201Z,0.50
2017-09-12T14:33:33.807Z,0.60
2017-09-12T14:36:02.122Z,1.07
2017-09-12T14:38:29.711Z,0.60
2017-09-12T14:40:57.302Z,0.53
2017-09-12T14:43:24.844Z,0.43
2017-09-12T14:45:52.437Z,0.50
2017-09-12T14:48:20.768Z,0.50
2017-09-12T14:50:48.350Z,0.40
2017-09-12T14:53:15.921Z,0.50
2017-09-12T14:55:45.053Z,0.70
2017-09-12T14:58:12.724Z,0.60
2017-09-12T15:00:40.293Z,0.50
2017-09-12T15:03:07.834Z,0.50
2017-09-12T15:05:35.387Z,0.50
2017-09-12T15:08:02.972Z,0.50
2017-09-12T15:10:30.531Z,0.40
2017-09-12T15:12:58.115Z,0.50
2017-09-12T15:15:25.665Z,0.40
2017-09-12T15:17:53.236Z,0.40
2017-09-12T15:20:20.779Z,0.60
2017-09-12T15:22:48.347Z,0.50
2017-09-12T15:25:15.928Z,0.50
2017-09-12T15:27:43.490Z,0.63
2017-09-12T15:30:11.847Z,1.83
2017-09-12T15:32:39.417Z,0.67
2017-09-12T15:35:06.978Z,0.90
2017-09-12T15:37:34.548Z,0.50
2017-09-12T15:40:02.136Z,0.60
2017-09-12T15:42:29.695Z,1.27
2017-09-12T15:44:57.303Z,0.60
2017-09-12T15:47:24.863Z,0.60
2017-09-12T15:49:52.442Z,0.70
2017-09-12T15:52:20.030Z,0.53
2017-09-12T15:54:48.381Z,0.80
2017-09-12T15:57:15.948Z,0.90
2017-09-12T15:59:43.691Z,0.90
2017-09-12T16:02:11.279Z,0.90
2017-09-12T16:04:39.604Z,0.73
2017-09-12T16:07:07.187Z,1.00
2017-09-12T16:09:34.748Z,0.80
2017-09-12T16:12:02.434Z,0.93
2017-09-12T16:14:30.815Z,0.83
2017-09-12T16:16:59.147Z,0.77
2017-09-12T16:19:26.727Z,0.70
2017-09-12T16:21:54.309Z,0.90
2017-09-12T16:24:22.640Z,0.83
2017-09-12T16:26:50.203Z,0.60
2017-09-12T16:29:17.776Z,0.50
2017-09-12T16:31:45.328Z,0.90
2017-09-12T16:34:12.902Z,0.60
2017-09-12T16:36:40.519Z,0.60
2017-09-12T16:39:08.073Z,0.83
2017-09-12T16:41:35.669Z,0.60
2017-09-12T16:44:03.227Z,0.60
2017-09-12T16:46:30.833Z,0.70
2017-09-12T16:48:59.171Z,0.70
2017-09-12T16:51:26.775Z,0.53
2017-09-12T16:53:55.117Z,0.60
2017-09-12T16:56:22.716Z,0.60
2017-09-12T16:58:51.051Z,0.60
2017-09-12T17:01:20.145Z,0.53
2017-09-12T17:03:47.743Z,0.50
2017-09-12T17:06:16.116Z,0.80
2017-09-12T17:08:44.466Z,0.70
2017-09-12T17:11:12.047Z,0.50
2017-09-12T17:13:39.626Z,0.53
2017-09-12T17:16:07.973Z,0.60
2017-09-12T17:18:35.557Z,0.60
2017-09-12T17:21:03.863Z,0.80
2017-09-12T17:23:31.467Z,0.80
2017-09-12T17:25:59.042Z,0.77
2017-09-12T17:28:26.639Z,0.70
2017-09-12T17:30:54.194Z,1.07
2017-09-12T17:33:21.735Z,0.80
2017-09-12T17:35:50.081Z,1.13
2017-09-12T17:38:18.450Z,0.90
2017-09-12T17:40:46.048Z,1.27
2017-09-12T17:43:14.377Z,1.13
2017-09-12T17:45:41.951Z,1.17
2017-09-12T17:48:09.537Z,1.20
2017-09-12T17:50:37.913Z,0.77
2017-09-12T17:53:06.235Z,0.63
2017-09-12T17:55:33.803Z,0.70
2017-09-12T17:58:01.397Z,0.90
2017-09-12T18:00:28.943Z,0.90
2017-09-12T18:02:56.531Z,1.00
2017-09-12T18:05:24.086Z,1.07
2017-09-12T18:07:51.660Z,1.07
2017-09-12T18:10:19.990Z,0.77
2017-09-12T18:12:47.577Z,0.90
2017-09-12T18:15:15.120Z,0.83
2017-09-12T18:17:42.668Z,1.00
2017-09-12T18:20:10.240Z,0.90
2017-09-12T18:22:37.848Z,0.80
2017-09-12T18:25:05.424Z,0.90
2017-09-12T18:27:32.984Z,0.70
2017-09-12T18:30:00.576Z,0.80
2017-09-12T18:32:28.142Z,0.90
2017-09-12T18:34:55.726Z,0.90
2017-09-12T18:37:24.050Z,0.73
2017-09-12T18:39:51.646Z,1.00
2017-09-12T18:42:19.187Z,0.70
2017-09-12T18:44:46.732Z,0.90
2017-09-12T18:47:14.327Z,0.97
2017-09-12T18:49:41.913Z,1.10
2017-09-12T18:52:10.260Z,0.77
2017-09-12T18:54:37.804Z,0.70
2017-09-12T18:57:06.144Z,1.00
2017-09-12T18:59:33.734Z,1.43
2017-09-12T19:02:01.325Z,0.80
2017-09-12T19:04:28.893Z,0.80
2017-09-12T19:06:57.253Z,2.10
2017-09-12T19:09:24.862Z,2.20
2017-09-12T19:11:52.414Z,2.13
2017-09-12T19:14:20.039Z,2.60
2017-09-12T19:16:47.595Z,3.17
2017-09-12T19:19:15.183Z,3.40
2017-09-12T19:21:43.509Z,8.20
2017-09-12T19:24:11.101Z,13.87
2017-09-12T19:26:38.651Z,15.60
2017-09-12T19:29:06.245Z,16.43
2017-09-12T19:31:34.607Z,12.10
2017-09-12T19:34:02.157Z,17.90
2017-09-12T19:36:29.748Z,22.30
2017-09-12T19:38:58.093Z,14.17
2017-09-12T19:41:25.678Z,14.80
2017-09-12T19:43:53.992Z,8.60
2017-09-12T19:46:21.580Z,2.30
2017-09-12T19:48:49.661Z,2.63
2017-09-12T19:51:17.319Z,3.70
2017-09-12T19:53:44.895Z,2.23
2017-09-12T19:56:12.477Z,1.80
2017-09-12T19:58:40.076Z,1.33
2017-09-12T20:01:07.653Z,1.70
2017-09-12T20:03:35.219Z,1.20
2017-09-12T20:06:02.802Z,1.40
2017-09-12T20:08:31.150Z,1.33
2017-09-12T20:10:58.708Z,1.00
2017-09-12T20:13:26.315Z,1.10
2017-09-12T20:15:53.883Z,1.57
2017-09-12T20:18:21.437Z,0.90
2017-09-12T20:20:49.039Z,1.17
2017-09-12T20:23:16.605Z,1.27
2017-09-12T20:25:44.172Z,0.90
2017-09-12T20:28:11.716Z,0.97
2017-09-12T20:30:39.284Z,0.90
2017-09-12T20:33:06.882Z,0.93
2017-09-12T20:35:35.280Z,1.00
2017-09-12T20:38:02.823Z,0.93
2017-09-12T20:40:31.185Z,1.20
2017-09-12T20:42:58.780Z,0.60
2017-09-12T20:45:26.341Z,1.13
2017-09-12T20:47:54.543Z,1.00
2017-09-12T20:50:22.958Z,0.87
2017-09-12T20:52:50.541Z,1.00
2017-09-12T20:55:18.858Z,0.93
2017-09-12T20:57:46.480Z,1.27
2017-09-12T21:00:14.863Z,0.97
2017-09-12T21:02:42.442Z,1.20
2017-09-12T21:05:09.992Z,1.13
2017-09-12T21:07:37.554Z,0.97
2017-09-12T21:10:05.136Z,1.13
2017-09-12T21:12:32.715Z,1.03
2017-09-12T21:15:00.293Z,1.33
2017-09-12T21:17:27.860Z,1.43
2017-09-12T21:19:56.214Z,1.13
2017-09-12T21:22:23.792Z,1.30
2017-09-12T21:24:51.428Z,1.33
2017-09-12T21:27:19.007Z,1.80
2017-09-12T21:29:46.609Z,1.60
2017-09-12T21:32:14.206Z,1.73
2017-09-12T21:34:41.795Z,1.60
2017-09-12T21:37:09.421Z,1.40
2017-09-12T21:39:36.974Z,1.00
2017-09-12T21:42:04.565Z,1.20
2017-09-12T21:44:32.133Z,0.97
2017-09-12T21:46:59.727Z,1.20
2017-09-12T21:49:27.285Z,1.20
2017-09-12T21:51:54.864Z,1.00
2017-09-12T21:54:22.414Z,1.17
2017-09-12T21:56:49.995Z,1.10
2017-09-12T21:59:17.580Z,1.30
2017-09-12T22:01:45.151Z,1.47
2017-09-12T22:04:12.803Z,1.60
2017-09-12T22:06:40.383Z,1.57
2017-09-12T22:09:08.735Z,1.40
2017-09-12T22:11:36.299Z,1.43
2017-09-12T22:14:03.895Z,1.30
2017-09-12T22:16:32.199Z,1.23
2017-09-12T22:18:59.771Z,1.70
2017-09-12T22:21:27.331Z,0.80
2017-09-12T22:23:54.896Z,1.10
2017-09-12T22:26:22.468Z,0.93
2017-09-12T22:28:50.839Z,1.00
2017-09-12T22:31:18.414Z,1.03
2017-09-12T22:33:45.955Z,0.87
2017-09-12T22:36:13.566Z,1.10
2017-09-12T22:38:43.569Z,1.20
2017-09-12T22:41:14.514Z,1.30
2017-09-12T22:43:42.833Z,2.07
2017-09-12T22:46:10.426Z,1.10
2017-09-12T22:48:38.017Z,0.80
2017-09-12T22:51:06.333Z,0.77
2017-09-12T22:53:33.916Z,1.07
2017-09-12T22:56:01.472Z,1.00
2017-09-12T22:58:29.058Z,1.03
2017-09-12T23:00:56.658Z,0.83
2017-09-12T23:03:24.223Z,0.80
2017-09-12T23:05:51.780Z,0.90
2017-09-12T23:08:19.375Z,1.17
2017-09-12T23:10:46.924Z,1.20
2017-09-12T23:13:14.491Z,1.07
2017-09-12T23:15:42.066Z,0.80
2017-09-12T23:18:09.654Z,1.10
2017-09-12T23:20:38.011Z,1.37
2017-09-12T23:23:05.573Z,1.30
2017-09-12T23:25:33.149Z,1.43
2017-09-12T23:28:01.481Z,1.70
2017-09-12T23:30:29.076Z,1.30
2017-09-12T23:32:57.410Z,1.20
2017-09-12T23:35:24.955Z,1.10
2017-09-12T23:37:52.551Z,1.57
2017-09-12T23:40:20.092Z,1.50
2017-09-12T23:42:47.710Z,1.30
2017-09-12T23:45:16.050Z,1.60
2017-09-12T23:47:43.630Z,1.67
2017-09-12T23:50:11.181Z,2.00
2017-09-12T23:52:40.147Z,1.63
2017-09-12T23:55:07.696Z,1.67
2017-09-12T23:57:35.321Z,1.50
